Terminal Aerodrome Forecast
Issued by NWS Green Bay, WI

Home | Current Version | Previous Version | Graphics & Text | Print | Product List | Glossary On
Versions: 1 2 3 4 5 6 7 8 9 10 11 12 13 14 15 16 17 18 19 20 21 22
000
FTUS43 KGRB 230538 AAA
TAFGRB
TAF AMD
KGRB 230538Z 2306/2406 06008KT 6SM -FZDZ BR SCT012 OVC025
      WS020/15035KT
      TEMPO 2306/2309 3SM -FZRAPL BR BKN012
     FM230900 14007KT 3SM -FZRA BR OVC009 WS020/17035KT
     FM231100 18005KT 4SM -RA BR OVC007 WS020/23035KT
     FM231600 27009KT P6SM BKN020=

USA.gov is the U.S. government's official web portal to all federal, state and local government web resources and services.